createdAt,value
2019-05-01T00:00:58.921Z,48.14
2019-05-01T00:03:47.050Z,48.31
2019-05-01T00:06:16.914Z,48.23
2019-05-01T00:08:45.516Z,49.07
2019-05-01T00:11:14.723Z,48.80
2019-05-01T00:13:43.332Z,48.51
2019-05-01T00:16:11.986Z,47.93
2019-05-01T00:18:41.087Z,47.65
2019-05-01T00:21:09.688Z,48.28
2019-05-01T00:23:38.294Z,47.11
2019-05-01T00:26:07.312Z,47.51
2019-05-01T00:28:36.158Z,47.27
2019-05-01T00:31:05.105Z,49.32
2019-05-01T00:33:33.699Z,48.27
2019-05-01T00:36:02.312Z,48.20
2019-05-01T00:38:30.905Z,48.47
2019-05-01T00:40:59.518Z,48.27
2019-05-01T00:43:28.388Z,48.41
2019-05-01T00:45:57.013Z,48.09
2019-05-01T00:48:25.820Z,48.54
2019-05-01T00:50:54.672Z,49.19
2019-05-01T00:53:23.287Z,49.17
2019-05-01T00:56:15.396Z,48.55
2019-05-01T00:58:56.483Z,48.99
2019-05-01T01:01:53.760Z,50.27
2019-05-01T01:04:22.589Z,50.00
2019-05-01T01:06:51.190Z,49.74
2019-05-01T01:09:20.028Z,49.56
2019-05-01T01:11:48.910Z,48.48
2019-05-01T01:14:17.508Z,48.08
2019-05-01T01:16:46.385Z,47.44
2019-05-01T01:19:15.004Z,48.00
2019-05-01T01:21:43.600Z,48.45
2019-05-01T01:24:12.453Z,48.78
2019-05-01T01:26:41.296Z,48.99
2019-05-01T01:29:10.250Z,47.13
2019-05-01T01:31:38.903Z,48.87
2019-05-01T01:34:07.566Z,48.73
2019-05-01T01:36:36.160Z,48.44
2019-05-01T01:39:05.616Z,48.05
2019-05-01T01:41:34.304Z,47.49
2019-05-01T01:44:15.605Z,47.88
2019-05-01T01:46:44.498Z,47.13
2019-05-01T01:49:13.271Z,47.70
2019-05-01T01:51:42.184Z,48.20
2019-05-01T01:54:11.292Z,49.21
2019-05-01T01:56:40.235Z,49.26
2019-05-01T01:59:08.910Z,48.76
2019-05-01T02:01:51.975Z,48.12
2019-05-01T02:04:39.664Z,49.66
2019-05-01T02:07:08.341Z,47.69
2019-05-01T02:09:36.947Z,48.71
2019-05-01T02:12:05.816Z,47.91
2019-05-01T02:14:34.528Z,48.31
2019-05-01T02:17:03.154Z,48.80
2019-05-01T02:19:32.043Z,48.24
2019-05-01T02:22:00.707Z,46.99
2019-05-01T02:24:29.382Z,47.66
2019-05-01T02:26:59.839Z,48.20
2019-05-01T02:29:33.872Z,48.81
2019-05-01T02:32:02.546Z,49.96
2019-05-01T02:34:32.503Z,49.48
2019-05-01T02:37:02.752Z,48.88
2019-05-01T02:39:31.763Z,49.59
2019-05-01T02:42:01.864Z,49.65
2019-05-01T02:44:38.088Z,49.01
2019-05-01T02:47:08.802Z,48.78
2019-05-01T02:49:53.516Z,48.05
2019-05-01T02:52:24.986Z,48.85
2019-05-01T02:54:54.592Z,49.52
2019-05-01T02:57:25.068Z,48.97
2019-05-01T02:59:54.439Z,48.95
2019-05-01T03:02:24.868Z,48.16
2019-05-01T03:04:53.793Z,49.83
2019-05-01T03:07:22.773Z,50.10
2019-05-01T03:09:52.040Z,48.75
2019-05-01T03:12:22.436Z,48.07
2019-05-01T03:14:52.034Z,48.42
2019-05-01T03:17:38.084Z,49.67
2019-05-01T03:20:29.285Z,49.10
2019-05-01T03:23:23.830Z,49.84
2019-05-01T03:25:52.772Z,49.61
2019-05-01T03:28:22.250Z,48.52
2019-05-01T03:30:51.043Z,47.72
2019-05-01T03:33:19.723Z,49.24
2019-05-01T03:35:48.974Z,48.58
2019-05-01T03:38:17.925Z,49.46
2019-05-01T03:40:46.588Z,48.47
2019-05-01T03:43:15.281Z,49.99
2019-05-01T03:45:44.540Z,50.29
2019-05-01T03:48:13.518Z,50.77
2019-05-01T03:50:46.210Z,49.65
2019-05-01T03:53:12.835Z,50.07
2019-05-01T03:55:41.423Z,49.50
2019-05-01T03:58:10.154Z,48.67
2019-05-01T04:00:55.691Z,48.74
2019-05-01T04:03:30.548Z,48.70
2019-05-01T04:05:59.217Z,48.13
2019-05-01T04:08:28.216Z,49.40
2019-05-01T04:10:57.181Z,49.59
2019-05-01T04:13:26.059Z,48.74
2019-05-01T04:15:55.594Z,49.12
2019-05-01T04:18:24.609Z,49.30
2019-05-01T04:20:53.444Z,49.19
2019-05-01T04:23:22.080Z,49.38
2019-05-01T04:25:50.762Z,48.39
2019-05-01T04:28:44.509Z,48.26
2019-05-01T04:31:31.317Z,47.58
2019-05-01T04:34:02.561Z,48.28
2019-05-01T04:36:36.137Z,48.43
2019-05-01T04:39:07.247Z,48.97
2019-05-01T04:41:36.160Z,48.46
2019-05-01T04:44:05.066Z,47.75
2019-05-01T04:46:34.406Z,48.18
2019-05-01T04:49:03.758Z,48.95
2019-05-01T04:51:32.466Z,48.57
2019-05-01T04:54:01.334Z,48.24
2019-05-01T04:56:33.939Z,48.59
2019-05-01T04:59:02.537Z,48.81
2019-05-01T05:01:52.076Z,50.70
2019-05-01T05:04:20.752Z,51.43
2019-05-01T05:06:49.435Z,51.33
2019-05-01T05:09:19.774Z,50.90
2019-05-01T05:11:53.561Z,52.41
2019-05-01T05:14:26.692Z,52.44
2019-05-01T05:17:02.623Z,51.44
2019-05-01T05:19:31.297Z,49.16
2019-05-01T05:22:00.316Z,49.16
2019-05-01T05:24:28.925Z,50.08
2019-05-01T05:26:58.218Z,50.12
2019-05-01T05:29:27.316Z,48.52
2019-05-01T05:31:57.941Z,47.60
2019-05-01T05:34:27.237Z,47.18
2019-05-01T05:36:58.359Z,46.31
2019-05-01T05:39:35.270Z,46.31
2019-05-01T05:42:05.496Z,45.53
2019-05-01T05:44:35.056Z,47.01
2019-05-01T05:47:03.646Z,46.48
2019-05-01T05:49:32.423Z,47.00
2019-05-01T05:52:08.978Z,46.24
2019-05-01T05:54:43.535Z,45.14
2019-05-01T05:57:23.640Z,44.13
2019-05-01T05:59:55.450Z,43.90
2019-05-01T06:02:33.452Z,44.25
2019-05-01T06:05:15.337Z,44.21
2019-05-01T06:08:05.044Z,44.81
2019-05-01T06:10:47.985Z,43.27
2019-05-01T06:13:25.848Z,41.68
2019-05-01T06:16:01.136Z,41.66
2019-05-01T06:18:52.024Z,38.26
2019-05-01T06:21:34.766Z,35.79
2019-05-01T06:24:22.389Z,35.92
2019-05-01T06:26:51.303Z,35.12
2019-05-01T06:29:20.221Z,33.37
2019-05-01T06:31:49.182Z,30.90
2019-05-01T06:34:17.771Z,29.66
2019-05-01T06:36:49.724Z,29.07
2019-05-01T06:39:17.956Z,28.11
2019-05-01T06:41:46.759Z,26.23
2019-05-01T06:44:27.798Z,30.01
2019-05-01T06:47:19.729Z,29.26
2019-05-01T06:50:14.433Z,31.32
2019-05-01T06:52:43.325Z,29.33
2019-05-01T06:55:12.168Z,29.29
2019-05-01T06:57:43.690Z,26.76
2019-05-01T07:00:16.563Z,26.21
2019-05-01T07:02:47.185Z,24.33
2019-05-01T07:05:16.470Z,23.68
2019-05-01T07:07:48.020Z,22.50
2019-05-01T07:10:29.488Z,24.15
2019-05-01T07:12:47.355Z,25.70
2019-05-01T07:15:16.116Z,25.47
2019-05-01T07:17:47.883Z,26.56
2019-05-01T07:20:47.266Z,25.34
2019-05-01T07:23:18.715Z,25.56
2019-05-01T07:25:47.449Z,27.62
2019-05-01T07:28:16.197Z,27.70
2019-05-01T07:30:49.860Z,29.00
2019-05-01T07:33:18.792Z,28.92
2019-05-01T07:35:47.678Z,31.16
2019-05-01T07:38:16.367Z,29.70
2019-05-01T07:40:45.263Z,29.03
2019-05-01T07:43:39.025Z,25.92
2019-05-01T07:46:30.111Z,25.94
2019-05-01T07:48:59.589Z,26.70
2019-05-01T07:51:28.343Z,24.53
2019-05-01T07:53:58.962Z,23.03
2019-05-01T07:56:29.965Z,23.49
2019-05-01T07:58:59.301Z,23.59
2019-05-01T08:01:42.761Z,22.00
2019-05-01T08:04:13.786Z,21.83
2019-05-01T08:06:42.147Z,22.15
2019-05-01T08:09:14.926Z,21.46
2019-05-01T08:11:44.200Z,23.90
2019-05-01T08:14:11.980Z,24.97
2019-05-01T08:16:42.419Z,23.07
2019-05-01T08:19:20.777Z,21.99
2019-05-01T08:22:06.679Z,22.20
2019-05-01T08:24:35.872Z,23.73
2019-05-01T08:27:04.930Z,24.16
2019-05-01T08:29:52.807Z,22.63
2019-05-01T08:32:40.920Z,22.53
2019-05-01T08:35:11.475Z,23.19
2019-05-01T08:37:40.106Z,22.44
2019-05-01T08:40:09.395Z,23.01
2019-05-01T08:42:42.644Z,21.29
2019-05-01T08:45:22.274Z,20.14
2019-05-01T08:48:00.400Z,20.67
2019-05-01T08:50:29.939Z,21.29
2019-05-01T08:52:59.061Z,23.05
2019-05-01T08:55:27.685Z,21.39
2019-05-01T08:57:56.378Z,20.18
2019-05-01T09:00:25.332Z,20.91
2019-05-01T09:02:53.952Z,22.44
2019-05-01T09:05:28.894Z,22.87
2019-05-01T09:07:56.027Z,23.04
2019-05-01T09:10:23.613Z,22.33
2019-05-01T09:12:52.534Z,22.30
2019-05-01T09:15:21.289Z,21.27
2019-05-01T09:17:50.054Z,21.45
2019-05-01T09:20:18.928Z,23.11
2019-05-01T09:22:47.649Z,22.12
2019-05-01T09:25:19.611Z,21.59
2019-05-01T09:27:59.598Z,20.66
2019-05-01T09:30:34.733Z,20.38
2019-05-01T09:33:03.560Z,20.80
2019-05-01T09:35:32.790Z,19.04
2019-05-01T09:38:01.400Z,19.37
2019-05-01T09:40:30.014Z,20.70
2019-05-01T09:42:59.762Z,20.91
2019-05-01T09:45:29.113Z,21.37
2019-05-01T09:47:58.279Z,20.75
2019-05-01T09:50:30.413Z,20.75
2019-05-01T09:53:08.020Z,21.48
2019-05-01T09:55:42.164Z,24.45
2019-05-01T09:58:10.802Z,25.70
2019-05-01T10:00:39.392Z,27.56
2019-05-01T10:03:08.280Z,27.26
2019-05-01T10:05:38.002Z,27.28
2019-05-01T10:08:07.972Z,27.36
2019-05-01T10:10:37.069Z,27.67
2019-05-01T10:13:05.746Z,27.46
2019-05-01T10:15:34.471Z,27.62
2019-05-01T10:18:03.076Z,27.43
2019-05-01T10:20:31.714Z,26.65
2019-05-01T10:23:00.642Z,25.69
2019-05-01T10:25:29.262Z,25.43
2019-05-01T10:28:07.227Z,26.40
2019-05-01T10:30:55.920Z,26.66
2019-05-01T10:33:29.041Z,26.05
2019-05-01T10:36:19.140Z,25.20
2019-05-01T10:38:44.961Z,24.44
2019-05-01T10:41:14.662Z,24.77
2019-05-01T10:43:43.315Z,26.59
2019-05-01T10:46:11.926Z,25.78
2019-05-01T10:48:40.763Z,26.80
2019-05-01T10:51:09.619Z,28.45
2019-05-01T10:53:38.231Z,26.95
2019-05-01T10:56:07.167Z,26.36
2019-05-01T10:58:35.774Z,24.69
2019-05-01T11:01:13.991Z,26.17
2019-05-01T11:03:43.093Z,23.55
2019-05-01T11:06:11.699Z,22.25
2019-05-01T11:08:40.564Z,21.76
2019-05-01T11:11:09.178Z,22.24
2019-05-01T11:13:37.794Z,20.85
2019-05-01T11:16:06.406Z,19.82
2019-05-01T11:18:35.024Z,19.89
2019-05-01T11:21:03.631Z,19.91
2019-05-01T11:23:32.261Z,20.47
2019-05-01T11:26:01.004Z,22.73
2019-05-01T11:28:29.602Z,25.26
2019-05-01T11:31:01.523Z,26.48
2019-05-01T11:33:55.033Z,27.21
2019-05-01T11:36:42.280Z,26.61
2019-05-01T11:39:40.685Z,25.93
2019-05-01T11:42:09.270Z,25.30
2019-05-01T11:44:38.808Z,24.44
2019-05-01T11:47:07.470Z,24.46
2019-05-01T11:49:36.646Z,24.94
2019-05-01T11:52:05.793Z,26.17
2019-05-01T11:54:34.480Z,27.32
2019-05-01T11:57:03.088Z,28.02
2019-05-01T11:59:32.890Z,28.12
2019-05-01T12:02:02.559Z,27.71
2019-05-01T12:04:31.325Z,27.54
2019-05-01T12:07:00.171Z,25.97
2019-05-01T12:09:29.292Z,26.83
2019-05-01T12:12:00.841Z,28.41
2019-05-01T12:14:29.857Z,29.12
2019-05-01T12:17:19.991Z,31.00
2019-05-01T12:19:48.794Z,30.02
2019-05-01T12:22:17.669Z,30.24
2019-05-01T12:24:46.334Z,29.34
2019-05-01T12:27:14.958Z,29.32
2019-05-01T12:29:43.853Z,29.07
2019-05-01T12:32:12.461Z,28.40
2019-05-01T12:34:41.555Z,28.18
2019-05-01T12:37:31.941Z,29.23
2019-05-01T12:40:00.551Z,29.18
2019-05-01T12:42:29.789Z,29.66
2019-05-01T12:44:58.664Z,30.18
2019-05-01T12:48:01.501Z,28.59
2019-05-01T12:50:30.129Z,30.03
2019-05-01T12:53:07.256Z,30.21
2019-05-01T12:56:05.387Z,29.70
2019-05-01T12:58:35.216Z,29.67
2019-05-01T13:01:05.515Z,31.95
2019-05-01T13:03:34.119Z,30.69
2019-05-01T13:06:02.989Z,31.47
2019-05-01T13:08:31.597Z,31.33
2019-05-01T13:11:00.295Z,32.49
2019-05-01T13:13:28.968Z,31.98
2019-05-01T13:15:57.815Z,31.66
2019-05-01T13:18:26.425Z,31.93
2019-05-01T13:20:55.084Z,31.85
2019-05-01T13:23:24.043Z,31.79
2019-05-01T13:25:54.526Z,33.59
2019-05-01T13:28:42.235Z,33.53
2019-05-01T13:31:28.804Z,33.48
2019-05-01T13:33:57.416Z,31.83
2019-05-01T13:36:26.095Z,30.65
2019-05-01T13:38:54.704Z,31.95
2019-05-01T13:41:23.304Z,31.53
2019-05-01T13:43:52.154Z,29.93
2019-05-01T13:46:20.996Z,31.22
2019-05-01T13:48:49.621Z,32.55
2019-05-01T13:51:18.715Z,31.07
2019-05-01T13:53:47.330Z,30.90
2019-05-01T13:56:16.069Z,30.73
2019-05-01T13:58:44.673Z,31.65
2019-05-01T14:01:13.268Z,31.12
2019-05-01T14:03:41.884Z,33.67
2019-05-01T14:06:10.517Z,34.87
2019-05-01T14:08:39.672Z,32.51
2019-05-01T14:11:08.314Z,33.50
2019-05-01T14:13:37.170Z,32.92
2019-05-01T14:16:05.846Z,32.29
2019-05-01T14:18:34.483Z,31.45
2019-05-01T14:21:18.422Z,31.00
2019-05-01T14:24:15.380Z,31.55
2019-05-01T14:26:44.234Z,30.46
2019-05-01T14:29:12.838Z,32.44
2019-05-01T14:31:41.504Z,33.01
2019-05-01T14:34:10.102Z,32.11
2019-05-01T14:36:38.954Z,32.39
2019-05-01T14:39:07.736Z,32.62
2019-05-01T14:41:36.597Z,34.80
2019-05-01T14:44:05.939Z,32.38
2019-05-01T14:46:35.229Z,32.39
2019-05-01T14:49:03.975Z,33.93
2019-05-01T14:51:32.833Z,32.35
2019-05-01T14:54:01.938Z,32.94
2019-05-01T14:56:30.558Z,31.31
2019-05-01T14:58:59.482Z,31.11
2019-05-01T15:01:28.070Z,31.98
2019-05-01T15:03:57.205Z,31.79
2019-05-01T15:06:25.972Z,31.92
2019-05-01T15:08:54.573Z,31.07
2019-05-01T15:11:23.192Z,32.47
2019-05-01T15:14:13.922Z,31.60
2019-05-01T15:16:56.638Z,31.26
2019-05-01T15:19:27.309Z,32.42
2019-05-01T15:21:55.928Z,31.89
2019-05-01T15:24:24.612Z,32.76
2019-05-01T15:26:53.204Z,32.04
2019-05-01T15:29:22.044Z,31.79
2019-05-01T15:31:50.983Z,31.21
2019-05-01T15:34:24.064Z,31.41
2019-05-01T15:36:52.789Z,29.98
2019-05-01T15:39:35.681Z,30.85
2019-05-01T15:42:26.369Z,31.23
2019-05-01T15:44:55.052Z,32.07
2019-05-01T15:47:23.688Z,32.58
2019-05-01T15:49:52.545Z,33.37
2019-05-01T15:52:21.205Z,32.14
2019-05-01T15:54:50.110Z,32.19
2019-05-01T15:57:18.770Z,32.46
2019-05-01T15:59:47.651Z,32.97
2019-05-01T16:02:16.270Z,32.08
2019-05-01T16:04:44.933Z,31.70
2019-05-01T16:07:13.641Z,33.04
2019-05-01T16:09:42.251Z,33.88
2019-05-01T16:12:19.706Z,34.03
2019-05-01T16:14:49.777Z,34.70
2019-05-01T16:17:18.498Z,34.10
2019-05-01T16:19:47.131Z,36.09
2019-05-01T16:22:15.824Z,34.89
2019-05-01T16:24:44.449Z,34.79
2019-05-01T16:27:13.040Z,35.30
2019-05-01T16:29:41.750Z,34.69
2019-05-01T16:32:10.434Z,36.22
2019-05-01T16:34:39.300Z,35.48
2019-05-01T16:37:08.176Z,34.15
2019-05-01T16:39:55.817Z,37.71
2019-05-01T16:42:42.877Z,36.64
2019-05-01T16:45:12.439Z,36.12
2019-05-01T16:47:41.065Z,35.96
2019-05-01T16:50:10.406Z,36.64
2019-05-01T16:52:39.487Z,36.57
2019-05-01T16:55:08.641Z,36.99
2019-05-01T16:57:37.270Z,36.34
2019-05-01T17:00:08.188Z,36.52
2019-05-01T17:03:11.254Z,37.15
2019-05-01T17:05:52.139Z,37.76
2019-05-01T17:08:38.686Z,36.17
2019-05-01T17:11:08.192Z,37.19
2019-05-01T17:13:37.272Z,37.89
2019-05-01T17:16:06.134Z,38.21
2019-05-01T17:18:35.105Z,36.89
2019-05-01T17:21:03.994Z,36.45
2019-05-01T17:23:32.811Z,37.56
2019-05-01T17:26:01.949Z,37.34
2019-05-01T17:28:32.767Z,36.50
2019-05-01T17:31:01.368Z,36.61
2019-05-01T17:33:30.345Z,37.35
2019-05-01T17:35:59.038Z,37.42
2019-05-01T17:38:28.153Z,37.70
2019-05-01T17:40:56.891Z,39.09
2019-05-01T17:43:25.509Z,37.43
2019-05-01T17:45:54.335Z,38.41
2019-05-01T17:48:23.325Z,38.13
2019-05-01T17:50:55.045Z,37.60
2019-05-01T17:53:22.820Z,40.43
2019-05-01T17:55:51.578Z,39.29
2019-05-01T17:58:20.440Z,39.94
2019-05-01T18:01:27.806Z,39.07
2019-05-01T18:04:16.032Z,39.51
2019-05-01T18:06:47.924Z,38.50
2019-05-01T18:09:17.525Z,39.12
2019-05-01T18:11:47.237Z,39.21
2019-05-01T18:14:17.099Z,39.29
2019-05-01T18:16:46.112Z,39.54
2019-05-01T18:19:14.983Z,38.92
2019-05-01T18:21:46.611Z,39.64
2019-05-01T18:24:46.525Z,39.21
2019-05-01T18:27:40.532Z,39.46
2019-05-01T18:30:15.752Z,39.99
2019-05-01T18:32:47.347Z,41.57
2019-05-01T18:35:14.366Z,40.96
2019-05-01T18:38:11.444Z,41.15
2019-05-01T18:40:43.068Z,40.02
2019-05-01T18:43:11.956Z,39.67
2019-05-01T18:45:54.767Z,40.35
2019-05-01T18:48:23.809Z,40.01
2019-05-01T18:50:54.613Z,39.91
2019-05-01T18:53:23.436Z,39.53
2019-05-01T18:55:52.292Z,40.98
2019-05-01T18:58:21.050Z,42.26
2019-05-01T19:00:50.209Z,43.48
2019-05-01T19:03:18.807Z,44.38
2019-05-01T19:05:48.237Z,43.86
2019-05-01T19:08:16.967Z,43.70
2019-05-01T19:10:45.801Z,44.02
2019-05-01T19:13:14.893Z,43.63
2019-05-01T19:15:43.743Z,43.54
2019-05-01T19:18:12.356Z,44.10
2019-05-01T19:20:40.994Z,43.63
2019-05-01T19:23:09.875Z,43.39
2019-05-01T19:25:38.466Z,44.20
2019-05-01T19:28:07.848Z,43.64
2019-05-01T19:30:36.874Z,44.66
2019-05-01T19:33:05.784Z,44.87
2019-05-01T19:35:34.618Z,46.04
2019-05-01T19:38:03.235Z,46.46
2019-05-01T19:40:32.764Z,45.62
2019-05-01T19:43:01.592Z,44.74
2019-05-01T19:45:30.238Z,44.79
2019-05-01T19:47:59.478Z,45.54
2019-05-01T19:50:28.062Z,45.10
2019-05-01T19:52:56.797Z,44.42
2019-05-01T19:55:25.661Z,44.69
2019-05-01T19:57:54.822Z,44.67
2019-05-01T20:00:55.619Z,46.07
2019-05-01T20:03:24.527Z,45.26
2019-05-01T20:05:53.384Z,44.96
2019-05-01T20:08:22.309Z,45.43
2019-05-01T20:10:51.206Z,45.06
2019-05-01T20:13:19.804Z,45.53
2019-05-01T20:15:48.702Z,45.34
2019-05-01T20:18:17.317Z,47.78
2019-05-01T20:20:46.215Z,47.02
2019-05-01T20:23:14.887Z,45.79
2019-05-01T20:25:43.722Z,45.07
2019-05-01T20:28:12.409Z,45.54
2019-05-01T20:30:40.997Z,45.30
2019-05-01T20:33:09.626Z,44.54
2019-05-01T20:35:38.457Z,44.53
2019-05-01T20:38:07.320Z,45.83
2019-05-01T20:40:36.228Z,46.31
2019-05-01T20:43:05.966Z,46.07
2019-05-01T20:45:36.295Z,45.14
2019-05-01T20:48:05.086Z,45.50
2019-05-01T20:50:33.682Z,45.17
2019-05-01T20:53:02.289Z,45.98
2019-05-01T20:55:30.873Z,44.21
2019-05-01T20:58:16.945Z,44.48
2019-05-01T21:00:48.088Z,44.75
2019-05-01T21:03:18.207Z,42.87
2019-05-01T21:06:02.964Z,42.67
2019-05-01T21:08:39.767Z,42.55
2019-05-01T21:11:12.978Z,42.70
2019-05-01T21:13:41.838Z,43.89
2019-05-01T21:16:10.711Z,43.12
2019-05-01T21:18:39.311Z,44.32
2019-05-01T21:21:08.202Z,43.95
2019-05-01T21:23:36.808Z,43.68
2019-05-01T21:26:05.417Z,43.15
2019-05-01T21:28:34.400Z,44.04
2019-05-01T21:31:03.955Z,44.26
2019-05-01T21:33:34.000Z,43.86
2019-05-01T21:36:04.815Z,43.25
2019-05-01T21:38:33.468Z,47.07
2019-05-01T21:41:02.838Z,45.30
2019-05-01T21:43:33.266Z,45.14
2019-05-01T21:46:04.056Z,44.84
2019-05-01T21:48:33.426Z,44.67
2019-05-01T21:51:05.474Z,45.01
2019-05-01T21:53:32.975Z,44.07
2019-05-01T21:56:02.239Z,46.06
2019-05-01T21:58:35.322Z,43.86
2019-05-01T22:01:02.723Z,43.73
2019-05-01T22:03:31.448Z,46.42
2019-05-01T22:06:00.047Z,44.77
2019-05-01T22:08:28.734Z,45.50
2019-05-01T22:11:01.690Z,45.53
2019-05-01T22:13:28.105Z,46.32
2019-05-01T22:16:02.371Z,44.96
2019-05-01T22:18:42.922Z,46.35
2019-05-01T22:21:19.913Z,45.98
2019-05-01T22:24:16.416Z,45.44
2019-05-01T22:26:51.445Z,47.38
2019-05-01T22:29:21.992Z,45.94
2019-05-01T22:31:58.822Z,44.88
2019-05-01T22:34:43.727Z,45.27
2019-05-01T22:37:12.661Z,44.90
2019-05-01T22:39:43.323Z,44.35
2019-05-01T22:42:11.984Z,46.45
2019-05-01T22:44:40.600Z,45.63
2019-05-01T22:47:10.269Z,46.64
2019-05-01T22:49:39.780Z,46.46
2019-05-01T22:52:08.375Z,44.98
2019-05-01T22:54:36.976Z,45.43
2019-05-01T22:57:05.641Z,46.80
2019-05-01T22:59:34.717Z,47.44
2019-05-01T23:02:10.653Z,45.34
2019-05-01T23:04:39.256Z,44.52
2019-05-01T23:07:11.664Z,44.58
2019-05-01T23:09:38.364Z,46.76
2019-05-01T23:12:07.035Z,45.24
2019-05-01T23:14:35.626Z,49.63
2019-05-01T23:17:21.966Z,46.23
2019-05-01T23:19:50.647Z,48.17
2019-05-01T23:22:19.845Z,46.78
2019-05-01T23:24:48.457Z,45.49
2019-05-01T23:27:17.049Z,46.13
2019-05-01T23:29:46.140Z,46.97
2019-05-01T23:32:14.742Z,45.33
2019-05-01T23:34:43.450Z,44.72
2019-05-01T23:37:12.045Z,46.09
2019-05-01T23:39:42.228Z,45.57
2019-05-01T23:42:10.785Z,45.12
2019-05-01T23:44:42.945Z,46.18
2019-05-01T23:47:09.711Z,46.34
2019-05-01T23:49:38.455Z,46.69
2019-05-01T23:52:07.046Z,45.62
2019-05-01T23:54:35.729Z,45.62
2019-05-01T23:57:04.404Z,47.17
2019-05-01T23:59:32.996Z,47.32
